Latest Coastal Weather Observations for St Helens

IDT60701

Issued at 8:22 pm EDT Tuesday 26 January 2021 (issued every 10 minutes, with the page automatically refreshed every 10 minutes)

About coastal observations | Map of coastal stations | Coastal observations for TAS | Marine services | Other Formats
Station Details ID: 092120 Name: ST HELENS AERODROME Lat: -41.34 Lon: 148.28 Height: 48.0 m
Data from the previous 72 hours. | See also: Recent months at St Helens
Date/Time
EDT
Wind Sea
Height
m
Swell Vis
km
Cloud Weather Temp
°C
Press
MSL
hPa
Rain since
9am
mm
Dir  Spd
kts
Gust
kts
Height
m
Period
s
Dir
26/08:00pm SE 3 5 - - - - 10 Partly cloudy - 17.8 1003.5 1.6
26/07:30pm SE 2 4 - - - - 10 Cloudy - 18.0 1002.9 1.6
26/07:00pm ESE 3 6 - - - - 10 Cloudy - 18.2 1002.2 1.6
26/06:30pm ESE 3 5 - - - - 10 Cloudy - 18.3 1001.7 1.6
26/06:00pm NE 7 9 - - - - 10 Cloudy - 18.3 1001.5 1.6
26/05:30pm ENE 5 7 - - - - 10 Partly cloudy - 18.1 1001.3 1.6
26/05:00pm E 3 6 - - - - 9 Partly cloudy - 17.8 1001.2 1.6
26/04:58pm E 3 6 - - - - 9 Partly cloudy - 17.6 1001.2 1.6
26/04:30pm ESE 2 5 - - - - 10 Partly cloudy - 18.0 1001.1 0.8
26/04:26pm E 3 9 - - - - 10 Partly cloudy - 18.0 1001.1 0.8
26/04:00pm NE 9 13 - - - - 10 Partly cloudy - 18.2 1000.6 0.8
26/03:30pm ENE 11 15 - - - - 10 Partly cloudy - 19.2 1000.3 0.8
26/03:00pm ENE 9 13 - - - - 10 Cloudy - 19.0 1000.2 0.8
26/02:30pm ENE 8 14 - - - - 10 Partly cloudy - 18.9 1000.0 0.8
26/02:26pm ENE 8 14 - - - - 10 Partly cloudy - 18.4 1000.0 0.8
26/02:25pm ENE 9 14 - - - - 10 Partly cloudy - 18.5 1000.1 0.8
26/02:03pm E 7 11 - - - - 10 Partly cloudy - 18.0 999.9 0.8
26/02:00pm E 7 11 - - - - 10 Partly cloudy - 18.1 999.8 0.8
26/01:50pm E 6 10 - - - - 10 Partly cloudy - 17.7 999.8 0.8
26/01:30pm E 8 12 - - - - 10 Partly cloudy - 18.0 999.5 0.8
26/01:01pm ESE 5 9 - - - - 10 Partly cloudy - 18.4 999.5 0.8
26/01:00pm ESE 5 9 - - - - 10 Partly cloudy - 18.0 999.5 0.8
26/12:49pm ESE 4 7 - - - - 7 Partly cloudy - 18.6 999.5 0.8
26/12:36pm ESE 5 8 - - - - 5 Partly cloudy - 17.8 999.5 0.8
26/12:34pm ESE 5 8 - - - - 5 Partly cloudy - 17.6 999.5 0.8
26/12:30pm SE 4 8 - - - - 5 Partly cloudy - 18.1 999.5 0.6
26/12:00pm SE 5 8 - - - - 10 Cloudy - 17.7 999.3 0.0
26/11:36am SSE 6 11 - - - - 7 Partly cloudy - 18.1 999.1 0.0
26/11:30am SSE 6 11 - - - - 5 Partly cloudy - 17.7 999.0 0.0
26/11:00am SE 6 10 - - - - 3 Partly cloudy - 17.4 999.0 0.0
26/10:56am SSE 5 10 - - - - 4 Partly cloudy - 17.4 998.9 0.0
26/10:30am SSE 4 8 - - - - 10 Partly cloudy - 17.8 998.6 0.0
26/10:00am SSE 6 12 - - - - 10 Cloudy - 17.3 998.3 0.0
26/09:30am S 7 13 - - - - 10 Partly cloudy - 17.1 997.9 0.0
26/09:00am SSE 7 11 - - - - 25 Cloudy Fine 17.1 997.8 4.2
26/08:30am SSE 7 11 - - - - 10 Partly cloudy - 16.8 997.8 3.6
26/08:00am S 9 16 - - - - 10 Partly cloudy - 16.8 997.3 3.6
26/07:55am S 8 16 - - - - 9 Partly cloudy - 17.0 997.2 3.6
26/07:30am S 9 14 - - - - 10 Partly cloudy - 17.2 996.8 2.6
26/07:00am SSE 1 8 - - - - 10 Partly cloudy - 19.0 996.2 2.0
26/06:30am ESE 3 5 - - - - 10 Partly cloudy - 18.9 995.5 1.8
26/06:00am SSE 2 4 - - - - 10 Cloudy - 18.8 995.2 1.8
26/05:30am NNW 5 8 - - - - 10 Partly cloudy - 19.3 994.8 1.8
26/05:00am NE 4 5 - - - - 10 Partly cloudy - 19.4 994.8 1.2
26/04:30am N 5 7 - - - - 10 Cloudy - 20.1 994.2 1.2
26/04:00am N 5 7 - - - - 10 Cloudy - 19.8 994.4 1.2
26/03:30am NW 5 8 - - - - 10 Partly cloudy - 19.4 995.1 1.0
26/03:00am W 3 6 - - - - 10 Cloudy - 18.9 995.3 1.0
26/02:30am SW 2 4 - - - - 10 Cloudy - 18.4 996.0 1.0
26/02:00am CALM 0 3 - - - - 10 Partly cloudy - 18.4 996.2 1.0
26/01:30am NW 3 5 - - - - 10 Partly cloudy - 18.7 996.8 1.0
26/01:00am W 2 4 - - - - 10 Partly cloudy - 18.7 997.3 1.0
26/12:30am NW 2 5 - - - - 10 Partly cloudy - 18.9 998.2 1.0
26/12:00am NNW 4 6 - - - - 10 Cloudy - 18.9 999.0 1.0
 
Date/Time
EDT
Wind Sea
Height
m
Swell Vis
km
Cloud Weather Temp
°C
Press
MSL
hPa
Rain since
9am
mm
Dir  Spd
kts
Gust
kts
Height
m
Period
s
Dir
25/11:30pm WNW 5 7 - - - - 10 Partly cloudy - 18.9 999.6 0.8
25/11:00pm NNW 4 7 - - - - 10 Cloudy - 19.5 1000.0 0.6
25/10:30pm WSW 3 5 - - - - 10 Cloudy - 19.5 1000.1 0.6
25/10:00pm W 3 5 - - - - 10 - - 20.0 1000.4 0.2
25/09:30pm S 7 11 - - - - 10 Partly cloudy - 19.2 999.2 0.2
25/09:00pm S 10 15 - - - - 10 Partly cloudy - 19.9 997.9 0.0
25/08:30pm SSE 11 17 - - - - 10 Cloudy - 21.5 998.0 0.0
25/08:00pm S 13 21 - - - - 10 - - 23.1 997.8 0.0
25/07:30pm S 13 21 - - - - 10 - - 23.3 996.7 0.0
25/07:00pm S 15 23 - - - - 10 - - 23.6 996.2 0.0
25/06:30pm S 11 20 - - - - 10 - - 24.9 995.6 0.0
25/06:00pm NNE 9 11 - - - - 10 - - 26.5 994.6 0.0
25/05:30pm NNE 8 11 - - - - 10 - - 28.5 994.5 0.0
25/05:00pm NW 6 9 - - - - 10 - - 32.3 994.5 0.0
25/04:30pm NW 9 16 - - - - 10 - - 32.4 994.8 0.0
25/04:00pm WNW 11 20 - - - - 10 - - 34.0 994.7 0.0
25/03:30pm WNW 8 14 - - - - 10 - - 35.5 994.6 0.0
25/03:00pm NW 9 13 - - - - 10 - - 34.9 995.0 0.0
25/02:30pm WNW 7 13 - - - - 10 - - 32.7 995.3 0.0
25/02:00pm W 9 19 - - - - 10 - - 33.8 995.8 0.0
25/01:30pm W 12 23 - - - - 10 - - 33.8 996.2 0.0
25/01:00pm WNW 12 21 - - - - 10 Partly cloudy - 33.6 995.8 0.0
25/12:30pm WNW 9 16 - - - - 10 - - 33.1 996.2 0.0
25/12:00pm WNW 10 19 - - - - 10 - - 33.0 996.6 0.0
25/11:30am NNW 7 12 - - - - 10 - - 33.5 997.4 0.0
25/11:00am NNW 9 15 - - - - 10 - - 31.6 997.8 0.0
25/10:30am NNW 8 16 - - - - 10 - - 28.8 998.2 0.0
25/10:00am NNW 7 12 - - - - 10 - - 27.3 998.7 0.0
25/09:30am NNW 9 12 - - - - 10 - - 25.3 999.0 0.0
25/09:00am N 7 10 - - - - 15 Mostly cloudy Haze 24.3 999.5 0.0
25/08:30am N 4 5 - - - - 10 - - 19.7 999.9 0.0
25/08:00am NNW 4 5 - - - - 10 - - 19.2 1000.1 0.0
25/07:30am CALM 0 0 - - - - 10 - - 17.1 1000.4 0.0
25/07:00am N 3 5 - - - - 10 - - 15.7 1000.7 0.0
25/06:30am NNW 5 6 - - - - 10 - - 15.6 1000.9 0.0
25/06:00am NNW 6 7 - - - - 10 - - 15.4 1001.2 0.0
25/05:30am N 4 5 - - - - 10 - - 15.8 1001.4 0.0
25/05:00am N 3 5 - - - - 10 - - 15.8 1001.6 0.0
25/04:30am NNW 3 5 - - - - 10 - - 16.6 1002.0 0.0
25/04:00am NW 1 4 - - - - 10 - - 17.7 1002.5 0.0
25/03:30am NNW 2 6 - - - - 10 - - 19.2 1002.8 0.0
25/03:00am NNW 3 5 - - - - 10 - - 19.4 1003.2 0.0
25/02:30am NNW 5 9 - - - - 10 - - 19.1 1003.5 0.0
25/02:00am N 6 10 - - - - 10 - - 19.1 1003.9 0.0
25/01:30am NNE 6 9 - - - - 10 - - 19.3 1004.4 0.0
25/01:00am NNE 5 6 - - - - 10 - - 19.3 1004.5 0.0
25/12:30am NE 6 9 - - - - 10 - - 19.0 1005.0 0.0
25/12:00am NNE 6 7 - - - - 10 - - 19.0 1005.2 0.0
 
Date/Time
EDT
Wind Sea
Height
m
Swell Vis
km
Cloud Weather Temp
°C
Press
MSL
hPa
Rain since
9am
mm
Dir  Spd
kts
Gust
kts
Height
m
Period
s
Dir
24/11:30pm NNE 6 9 - - - - 10 - - 19.0 1005.5 0.0
24/11:00pm N 7 9 - - - - 10 - - 19.2 1005.8 0.0
24/10:30pm N 6 9 - - - - 10 - - 19.1 1006.1 0.0
24/10:00pm N 5 8 - - - - 10 - - 19.1 1006.2 0.0
24/09:30pm NNE 6 8 - - - - 10 - - 19.0 1006.4 0.0
24/09:00pm NNE 4 6 - - - - 10 - - 19.3 1006.3 0.0
24/08:30pm CALM 0 0 - - - - 10 - - 19.6 1006.4 0.0
24/08:00pm CALM 0 2 - - - - 10 - - 20.1 1006.4 0.0
24/07:30pm SE 2 5 - - - - 10 - - 20.1 1006.1 0.0
24/07:00pm NE 5 8 - - - - 10 - - 20.8 1006.3 0.0
24/06:30pm NE 7 9 - - - - 10 - - 20.1 1006.3 0.0
24/06:00pm NNE 9 11 - - - - 10 - - 20.2 1006.5 0.0
24/05:30pm NNE 8 11 - - - - 10 - - 21.6 1006.8 0.0
24/05:00pm NE 9 13 - - - - 10 - - 21.9 1007.0 0.0
24/04:30pm NNE 9 11 - - - - 10 - - 21.7 1007.7 0.0
24/04:00pm NNE 8 11 - - - - 10 - - 22.1 1008.0 0.0
24/03:30pm NE 9 14 - - - - 10 - - 21.7 1008.7 0.0
24/03:00pm NE 9 14 - - - - 10 - - 21.6 1009.0 0.0
24/02:30pm NE 8 13 - - - - 10 Partly cloudy - 22.0 1009.5 0.0
24/02:00pm ENE 8 13 - - - - 10 Partly cloudy - 22.4 1009.6 0.0
24/01:30pm E 6 11 - - - - 10 Cloudy - 21.2 1009.7 0.0
24/01:00pm ESE 5 7 - - - - 10 Cloudy - 21.2 1010.1 0.0
24/12:30pm E 8 12 - - - - 10 Partly cloudy - 20.6 1010.5 0.0
24/12:00pm E 7 11 - - - - 10 Mostly cloudy - 20.7 1010.5 0.0
24/11:30am E 8 12 - - - - 10 Partly cloudy - 20.1 1010.7 0.0
24/11:00am E 7 11 - - - - 10 Partly cloudy - 20.8 1010.7 0.0
24/10:30am ENE 6 9 - - - - 10 Cloudy - 20.6 1011.1 0.0
24/10:14am E 5 7 - - - - 10 Partly cloudy - 20.9 1011.0 0.0
24/10:00am E 4 7 - - - - 10 Partly cloudy - 20.5 1011.0 0.0
24/09:30am SE 3 7 - - - - 10 Cloudy - 20.2 1010.6 0.0
24/09:00am E 4 9 - - - - 15 Mostly cloudy Haze 19.5 1010.5 0.0
24/08:30am SE 4 8 - - - - 10 Cloudy - 19.1 1010.4 0.0
24/08:00am SSE 4 8 - - - - 10 Cloudy - 18.3 1010.4 0.0
24/07:30am SSE 1 4 - - - - 10 Cloudy - 17.4 1010.3 0.0
24/07:00am S 1 4 - - - - 10 Partly cloudy - 15.5 1009.5 0.0
24/06:30am ESE 1 4 - - - - 10 Partly cloudy - 15.4 1008.8 0.0
24/06:23am SE 2 5 - - - - 10 Partly cloudy - 15.2 1008.7 0.0
24/06:00am WNW 4 6 - - - - 10 - - 15.3 1009.1 0.0
24/05:30am W 3 5 - - - - 10 - - 15.4 1008.6 0.0
24/05:00am NW 4 6 - - - - 10 - - 15.8 1008.0 0.0
24/04:30am NW 5 6 - - - - 10 - - 16.2 1007.8 0.0
24/04:00am NW 2 5 - - - - 10 - - 16.3 1007.9 0.0
24/03:30am WNW 3 4 - - - - 10 - - 16.6 1008.4 0.0
24/03:00am NW 4 6 - - - - 10 - - 17.0 1008.5 0.0
24/02:30am W 2 4 - - - - 10 - - 17.4 1008.5 0.0
24/02:00am SSW 2 4 - - - - 10 - - 17.9 1008.5 0.0
24/01:30am S 4 6 - - - - 10 - - 18.5 1008.0 0.0
24/01:00am S 4 5 - - - - 10 - - 18.6 1008.4 0.0
24/12:30am W 2 5 - - - - 10 - - 20.1 1008.6 0.0
24/12:00am NNW 2 6 - - - - 10 - - 20.4 1008.6 0.0
 
Date/Time
EDT
Wind Sea
Height
m
Swell Vis
km
Cloud Weather Temp
°C
Press
MSL
hPa
Rain since
9am
mm
Dir  Spd
kts
Gust
kts
Height
m
Period
s
Dir
23/11:30pm WNW 2 6 - - - - 10 - - 20.4 1008.9 0.0
23/11:00pm WSW 3 6 - - - - 10 - - 20.5 1008.8 0.0
23/10:30pm NNW 5 7 - - - - 10 - - 20.8 1008.8 0.0
23/10:00pm WNW 6 9 - - - - 10 - - 21.3 1008.6 0.0
23/09:30pm N 3 5 - - - - 10 - - 21.1 1008.3 0.0
23/09:00pm NW 4 7 - - - - 10 - - 21.7 1007.7 0.0
23/08:30pm WSW 6 11 - - - - 10 - - 22.3 1007.1 0.0

Other formats

Comma delimited format used in spreadsheet applications
http://www.bom.gov.au/fwo/IDT60701/IDT60701.95981.axf

JavaScript Object Notation format (JSON) in row-major order
http://www.bom.gov.au/fwo/IDT60701/IDT60701.95981.json

Data quality

Most of these data are generated automatically and are frequently updated. Quality checks on data are not normally performed. It is possible for incorrect values to appear. Refer to information at About Latest Weather Observations and please check the disclaimer before using these data.